createdAt,value
2023-03-27T00:01:13.407Z,92.80
2023-03-27T00:03:40.792Z,92.90
2023-03-27T00:06:11.895Z,93.00
2023-03-27T00:08:38.992Z,93.00
2023-03-27T00:11:07.999Z,93.10
2023-03-27T00:13:36.451Z,93.20
2023-03-27T00:16:16.312Z,93.30
2023-03-27T00:18:44.860Z,93.40
2023-03-27T00:21:11.745Z,93.40
2023-03-27T00:23:38.651Z,93.40
2023-03-27T00:26:05.673Z,93.50
2023-03-27T00:28:32.509Z,93.50
2023-03-27T00:30:59.772Z,93.50
2023-03-27T00:33:27.276Z,93.60
2023-03-27T00:35:54.887Z,93.60
2023-03-27T00:38:21.819Z,93.60
2023-03-27T00:40:50.829Z,93.50
2023-03-27T00:43:29.597Z,93.40
2023-03-27T00:46:05.938Z,93.40
2023-03-27T00:48:35.567Z,93.50
2023-03-27T00:51:04.468Z,93.70
2023-03-27T00:53:32.341Z,93.90
2023-03-27T00:56:05.667Z,94.00
2023-03-27T00:58:39.625Z,94.20
2023-03-27T01:01:08.441Z,94.40
2023-03-27T01:03:35.730Z,94.40
2023-03-27T01:06:03.754Z,94.40
2023-03-27T01:08:33.729Z,94.30
2023-03-27T01:11:34.058Z,94.50
2023-03-27T01:14:39.883Z,94.70
2023-03-27T01:17:40.386Z,94.70
2023-03-27T01:20:34.092Z,94.60
2023-03-27T01:23:35.868Z,94.60
2023-03-27T01:26:36.610Z,94.60
2023-03-27T01:29:31.605Z,94.70
2023-03-27T01:32:19.791Z,94.80
2023-03-27T01:35:13.999Z,94.80
2023-03-27T01:38:02.964Z,94.80
2023-03-27T01:40:53.449Z,94.90
2023-03-27T01:43:47.326Z,94.90
2023-03-27T01:46:48.908Z,95.00
2023-03-27T01:49:31.130Z,95.10
2023-03-27T01:52:05.756Z,95.20
2023-03-27T01:54:39.707Z,95.30
2023-03-27T01:57:20.363Z,95.50
2023-03-27T01:59:51.798Z,95.60
2023-03-27T02:02:27.033Z,95.80
2023-03-27T02:05:19.171Z,95.80
2023-03-27T02:07:54.957Z,96.00
2023-03-27T02:10:29.179Z,96.20
2023-03-27T02:13:06.065Z,96.20
2023-03-27T02:15:36.824Z,96.40
2023-03-27T02:18:10.195Z,96.60
2023-03-27T02:20:39.152Z,96.70
2023-03-27T02:23:07.747Z,96.90
2023-03-27T02:25:40.528Z,97.00
2023-03-27T02:28:40.729Z,97.20
2023-03-27T02:31:33.102Z,97.40
2023-03-27T02:34:06.832Z,97.60
2023-03-27T02:36:57.425Z,97.70
2023-03-27T02:39:38.303Z,97.90
2023-03-27T02:42:16.554Z,98.00
2023-03-27T02:44:47.330Z,98.20
2023-03-27T02:47:36.204Z,98.40
2023-03-27T02:50:11.881Z,98.60
2023-03-27T02:52:52.042Z,98.80
2023-03-27T02:55:28.245Z,99.00
2023-03-27T02:58:02.301Z,99.20
2023-03-27T03:00:33.125Z,99.30
2023-03-27T03:03:22.379Z,99.50
2023-03-27T03:05:50.863Z,99.70
2023-03-27T03:08:17.691Z,99.90
2023-03-27T03:10:45.979Z,99.90
2023-03-27T03:13:12.811Z,99.90
2023-03-27T03:15:39.794Z,99.90
2023-03-27T03:18:07.636Z,99.90
2023-03-27T03:20:35.078Z,99.90
2023-03-27T03:23:02.542Z,99.90
2023-03-27T03:25:33.702Z,99.90
2023-03-27T03:28:01.578Z,99.90
2023-03-27T03:30:30.267Z,99.90
2023-03-27T03:32:57.725Z,99.90
2023-03-27T03:35:25.588Z,99.90
2023-03-27T03:37:52.900Z,99.90
2023-03-27T03:40:20.690Z,99.90
2023-03-27T03:42:52.044Z,99.90
2023-03-27T03:45:20.134Z,99.90
2023-03-27T03:47:47.108Z,99.90
2023-03-27T03:50:14.954Z,99.90
2023-03-27T03:52:42.443Z,99.90
2023-03-27T03:55:12.795Z,99.90
2023-03-27T03:57:39.638Z,99.90
2023-03-27T04:00:08.848Z,99.90
2023-03-27T04:02:37.092Z,99.90
2023-03-27T04:05:08.948Z,99.90
2023-03-27T04:07:36.319Z,99.90
2023-03-27T04:10:04.180Z,99.90
2023-03-27T04:12:31.036Z,99.90
2023-03-27T04:14:57.908Z,99.90
2023-03-27T04:17:26.693Z,99.90
2023-03-27T04:19:57.460Z,99.90
2023-03-27T04:22:26.293Z,99.90
2023-03-27T04:24:53.756Z,99.90
2023-03-27T04:27:21.260Z,99.90
2023-03-27T04:29:48.420Z,99.90
2023-03-27T04:32:18.980Z,99.90
2023-03-27T04:34:46.889Z,99.90
2023-03-27T04:37:14.663Z,99.90
2023-03-27T04:39:46.250Z,99.90
2023-03-27T04:42:17.539Z,99.90
2023-03-27T04:44:46.000Z,99.90
2023-03-27T04:47:12.901Z,99.90
2023-03-27T04:49:42.219Z,99.90
2023-03-27T04:52:09.488Z,99.90
2023-03-27T04:54:36.334Z,99.90
2023-03-27T04:57:03.650Z,99.90
2023-03-27T04:59:31.981Z,99.90
2023-03-27T05:02:01.531Z,99.90
2023-03-27T05:04:28.995Z,99.90
2023-03-27T05:06:57.690Z,99.90
2023-03-27T05:09:24.864Z,99.90
2023-03-27T05:11:52.106Z,99.90
2023-03-27T05:14:23.542Z,99.90
2023-03-27T05:16:54.862Z,99.90
2023-03-27T05:19:21.627Z,99.90
2023-03-27T05:21:48.464Z,99.90
2023-03-27T05:24:15.904Z,99.90
2023-03-27T05:26:43.329Z,99.90
2023-03-27T05:29:10.611Z,99.90
2023-03-27T05:31:40.171Z,99.90
2023-03-27T05:34:07.042Z,99.90
2023-03-27T05:36:35.407Z,99.90
2023-03-27T05:39:03.012Z,99.90
2023-03-27T05:41:29.938Z,99.90
2023-03-27T05:43:57.120Z,99.90
2023-03-27T05:46:24.034Z,99.90
2023-03-27T05:48:51.028Z,99.90
2023-03-27T05:51:18.046Z,99.90
2023-03-27T05:53:44.847Z,99.90
2023-03-27T05:56:11.815Z,99.90
2023-03-27T05:58:38.814Z,99.90
2023-03-27T06:01:06.007Z,99.90
2023-03-27T06:03:35.696Z,99.90
2023-03-27T06:06:10.287Z,99.90
2023-03-27T06:08:37.630Z,99.90
2023-03-27T06:11:11.672Z,99.90
2023-03-27T06:13:39.228Z,99.90
2023-03-27T06:16:06.841Z,99.90
2023-03-27T06:18:34.234Z,99.90
2023-03-27T06:21:01.738Z,99.90
2023-03-27T06:23:28.705Z,99.90
2023-03-27T06:25:55.860Z,99.90
2023-03-27T06:28:22.814Z,99.90
2023-03-27T06:30:50.505Z,99.90
2023-03-27T06:33:17.431Z,99.90
2023-03-27T06:35:53.043Z,99.90
2023-03-27T06:38:21.217Z,99.90
2023-03-27T06:40:48.149Z,99.80
2023-03-27T06:43:18.193Z,99.60
2023-03-27T06:45:47.335Z,99.60
2023-03-27T06:48:21.271Z,98.70
2023-03-27T06:50:51.120Z,97.60
2023-03-27T06:55:50.125Z,95.10
2023-03-27T06:58:19.082Z,95.70
2023-03-27T07:00:48.838Z,94.30
2023-03-27T07:03:16.242Z,91.90
2023-03-27T07:05:43.444Z,89.30
2023-03-27T07:08:21.682Z,85.90
2023-03-27T07:11:00.014Z,83.10
2023-03-27T07:13:37.339Z,80.40
2023-03-27T07:16:04.704Z,78.50
2023-03-27T07:18:31.589Z,77.30
2023-03-27T07:20:58.730Z,76.40
2023-03-27T07:23:26.937Z,76.10
2023-03-27T07:25:58.642Z,75.10
2023-03-27T07:28:25.899Z,74.40
2023-03-27T07:30:52.728Z,74.80
2023-03-27T07:33:19.738Z,74.40
2023-03-27T07:35:48.185Z,73.10
2023-03-27T07:38:16.686Z,71.20
2023-03-27T07:40:46.257Z,68.50
2023-03-27T07:43:13.490Z,68.90
2023-03-27T07:45:42.025Z,70.30
2023-03-27T07:48:11.846Z,72.30
2023-03-27T07:50:39.079Z,72.60
2023-03-27T07:53:06.541Z,69.30
2023-03-27T07:55:36.872Z,64.90
2023-03-27T07:58:04.055Z,62.50
2023-03-27T08:00:32.616Z,60.00
2023-03-27T08:03:11.524Z,57.90
2023-03-27T08:05:38.553Z,55.50
2023-03-27T08:08:05.522Z,56.60
2023-03-27T08:10:32.645Z,57.10
2023-03-27T08:12:59.646Z,58.60
2023-03-27T08:15:26.548Z,55.70
2023-03-27T08:17:55.331Z,52.50
2023-03-27T08:20:24.105Z,51.00
2023-03-27T08:22:54.302Z,50.40
2023-03-27T08:25:24.382Z,47.50
2023-03-27T08:27:51.182Z,45.90
2023-03-27T08:30:19.034Z,43.10
2023-03-27T08:32:46.433Z,44.20
2023-03-27T08:35:13.702Z,43.50
2023-03-27T08:37:41.526Z,41.90
2023-03-27T08:40:19.276Z,40.60
2023-03-27T08:42:49.829Z,39.20
2023-03-27T08:45:36.747Z,38.40
2023-03-27T08:48:11.218Z,36.90
2023-03-27T08:50:44.526Z,36.60
2023-03-27T08:53:22.721Z,35.50
2023-03-27T08:55:49.852Z,35.10
2023-03-27T08:58:21.232Z,34.30
2023-03-27T09:01:13.953Z,33.30
2023-03-27T09:03:50.096Z,32.40
2023-03-27T09:06:27.864Z,32.50
2023-03-27T09:09:03.333Z,32.20
2023-03-27T09:11:50.911Z,33.10
2023-03-27T09:14:31.210Z,35.40
2023-03-27T09:17:06.079Z,37.90
2023-03-27T09:19:55.590Z,39.70
2023-03-27T09:22:44.247Z,41.00
2023-03-27T09:25:35.994Z,45.00
2023-03-27T09:28:03.566Z,49.10
2023-03-27T09:30:32.502Z,52.70
2023-03-27T09:33:05.435Z,55.00
2023-03-27T09:35:35.415Z,57.00
2023-03-27T09:38:10.231Z,59.40
2023-03-27T09:40:44.635Z,60.20
2023-03-27T09:43:28.511Z,62.10
2023-03-27T09:45:57.943Z,62.90
2023-03-27T09:48:47.653Z,61.10
2023-03-27T09:51:42.437Z,56.90
2023-03-27T09:54:14.362Z,51.90
2023-03-27T09:56:43.286Z,48.40
2023-03-27T09:59:20.866Z,45.70
2023-03-27T10:03:00.365Z,43.50
2023-03-27T10:05:56.441Z,42.10
2023-03-27T10:08:42.376Z,41.20
2023-03-27T10:11:16.478Z,40.30
2023-03-27T10:13:49.096Z,39.40
2023-03-27T10:16:31.399Z,38.50
2023-03-27T10:22:18.868Z,37.30
2023-03-27T10:28:19.416Z,36.30
2023-03-27T10:30:51.788Z,35.70
2023-03-27T10:33:44.229Z,35.50
2023-03-27T10:36:31.931Z,36.00
2023-03-27T10:39:49.041Z,39.70
2023-03-27T10:42:17.605Z,42.90
2023-03-27T10:44:47.264Z,45.40
2023-03-27T10:47:20.647Z,47.50
2023-03-27T10:50:01.760Z,49.70
2023-03-27T10:52:57.345Z,46.30
2023-03-27T10:55:51.588Z,40.80
2023-03-27T10:58:27.056Z,39.20
2023-03-27T11:01:19.298Z,36.00
2023-03-27T11:03:59.597Z,34.10
2023-03-27T11:06:31.365Z,35.20
2023-03-27T11:09:10.169Z,35.90
2023-03-27T11:11:41.212Z,34.30
2023-03-27T11:14:18.294Z,36.10
2023-03-27T11:16:51.701Z,36.80
2023-03-27T11:19:26.974Z,38.50
2023-03-27T11:22:03.590Z,37.40
2023-03-27T11:24:42.989Z,36.60
2023-03-27T11:27:30.645Z,33.60
2023-03-27T11:30:23.223Z,33.30
2023-03-27T11:33:18.473Z,35.90
2023-03-27T11:35:52.090Z,40.10
2023-03-27T11:38:32.675Z,43.30
2023-03-27T11:41:00.126Z,43.80
2023-03-27T11:43:27.315Z,43.10
2023-03-27T11:46:13.069Z,39.80
2023-03-27T11:48:49.056Z,36.40
2023-03-27T11:51:37.511Z,35.50
2023-03-27T11:54:23.276Z,33.50
2023-03-27T11:57:01.211Z,32.30
2023-03-27T11:59:53.639Z,32.20
2023-03-27T12:02:57.188Z,32.00
2023-03-27T12:05:34.466Z,31.50
2023-03-27T12:08:20.405Z,32.60
2023-03-27T12:10:51.283Z,31.60
2023-03-27T12:13:24.294Z,31.10
2023-03-27T12:16:33.335Z,31.00
2023-03-27T12:19:38.965Z,35.60
2023-03-27T12:22:24.358Z,39.90
2023-03-27T12:25:20.026Z,42.10
2023-03-27T12:27:55.029Z,43.80
2023-03-27T12:30:34.496Z,45.30
2023-03-27T12:33:11.729Z,47.00
2023-03-27T12:35:47.385Z,47.50
2023-03-27T12:38:31.271Z,48.20
2023-03-27T12:41:13.810Z,49.70
2023-03-27T12:43:46.184Z,50.50
2023-03-27T12:46:16.359Z,50.00
2023-03-27T12:48:54.476Z,49.40
2023-03-27T12:51:47.576Z,48.20
2023-03-27T12:54:24.892Z,45.20
2023-03-27T12:57:16.434Z,42.50
2023-03-27T12:59:54.222Z,41.50
2023-03-27T13:02:39.689Z,40.00
2023-03-27T13:05:28.152Z,38.70
2023-03-27T13:08:15.216Z,37.70
2023-03-27T13:11:03.797Z,35.70
2023-03-27T13:14:01.789Z,34.70
2023-03-27T13:16:37.854Z,33.50
2023-03-27T13:19:28.300Z,34.20
2023-03-27T13:22:33.213Z,33.60
2023-03-27T13:25:20.687Z,33.70
2023-03-27T13:27:50.043Z,32.60
2023-03-27T13:30:47.243Z,33.80
2023-03-27T13:33:24.083Z,34.80
2023-03-27T13:36:02.140Z,38.10
2023-03-27T13:38:52.661Z,39.00
2023-03-27T13:41:40.836Z,41.40
2023-03-27T13:44:11.643Z,42.90
2023-03-27T13:46:45.167Z,44.10
2023-03-27T13:49:32.416Z,44.40
2023-03-27T13:52:20.517Z,44.40
2023-03-27T13:54:55.336Z,43.30
2023-03-27T13:57:54.572Z,42.10
2023-03-27T14:00:52.687Z,41.40
2023-03-27T14:03:57.728Z,39.40
2023-03-27T14:07:10.258Z,41.10
2023-03-27T14:09:47.390Z,42.80
2023-03-27T14:12:41.122Z,43.70
2023-03-27T14:15:31.253Z,44.80
2023-03-27T14:18:16.943Z,43.50
2023-03-27T14:21:00.904Z,42.40
2023-03-27T14:23:35.752Z,42.50
2023-03-27T14:26:08.561Z,40.90
2023-03-27T14:29:09.377Z,40.30
2023-03-27T14:31:50.239Z,40.60
2023-03-27T14:34:25.175Z,42.20
2023-03-27T14:36:52.431Z,43.20
2023-03-27T14:39:22.357Z,43.40
2023-03-27T14:41:54.465Z,44.10
2023-03-27T14:44:21.827Z,43.90
2023-03-27T14:46:50.485Z,43.60
2023-03-27T14:49:24.782Z,43.70
2023-03-27T14:51:54.111Z,43.60
2023-03-27T14:54:32.198Z,43.30
2023-03-27T14:57:05.873Z,43.10
2023-03-27T14:59:42.893Z,43.40
2023-03-27T15:02:26.590Z,44.00
2023-03-27T15:05:08.205Z,44.20
2023-03-27T15:07:35.912Z,44.30
2023-03-27T15:10:24.357Z,44.50
2023-03-27T15:12:52.251Z,45.00
2023-03-27T15:15:22.989Z,44.90
2023-03-27T15:17:54.932Z,45.20
2023-03-27T15:20:25.415Z,46.40
2023-03-27T15:23:11.912Z,45.60
2023-03-27T15:25:46.117Z,45.60
2023-03-27T15:28:25.194Z,46.00
2023-03-27T15:30:55.468Z,46.30
2023-03-27T15:33:34.542Z,45.40
2023-03-27T15:36:10.512Z,45.50
2023-03-27T15:38:38.237Z,45.60
2023-03-27T15:41:17.229Z,45.90
2023-03-27T15:43:45.195Z,46.60
2023-03-27T15:46:20.669Z,47.10
2023-03-27T15:48:55.264Z,47.00
2023-03-27T15:51:22.050Z,46.70
2023-03-27T15:53:53.554Z,47.10
2023-03-27T15:56:36.989Z,48.10
2023-03-27T15:59:10.272Z,48.50
2023-03-27T16:01:52.174Z,48.80
2023-03-27T16:04:35.384Z,48.80
2023-03-27T16:07:09.078Z,48.80
2023-03-27T16:09:56.146Z,48.60
2023-03-27T16:12:32.138Z,49.10
2023-03-27T16:15:04.387Z,48.90
2023-03-27T16:17:45.098Z,48.30
2023-03-27T16:20:32.427Z,48.80
2023-03-27T16:22:59.244Z,48.60
2023-03-27T16:25:26.358Z,48.70
2023-03-27T16:27:58.578Z,49.00
2023-03-27T16:30:38.624Z,49.30
2023-03-27T16:33:16.993Z,49.20
2023-03-27T16:35:45.268Z,49.10
2023-03-27T16:38:13.644Z,48.90
2023-03-27T16:40:40.792Z,48.70
2023-03-27T16:43:07.829Z,48.90
2023-03-27T16:45:35.220Z,48.80
2023-03-27T16:48:02.233Z,48.90
2023-03-27T16:50:30.800Z,49.10
2023-03-27T16:52:57.730Z,49.60
2023-03-27T16:55:25.059Z,50.40
2023-03-27T16:57:54.064Z,51.20
2023-03-27T17:00:21.302Z,52.30
2023-03-27T17:02:48.171Z,52.80
2023-03-27T17:05:15.762Z,53.30
2023-03-27T17:07:49.712Z,53.50
2023-03-27T17:10:16.973Z,53.60
2023-03-27T17:12:43.920Z,54.00
2023-03-27T17:15:11.106Z,54.80
2023-03-27T17:17:38.403Z,55.00
2023-03-27T17:20:07.661Z,55.30
2023-03-27T17:22:34.646Z,55.60
2023-03-27T17:25:03.503Z,55.90
2023-03-27T17:27:30.911Z,56.70
2023-03-27T17:30:00.580Z,57.10
2023-03-27T17:32:28.081Z,57.70
2023-03-27T17:34:55.777Z,58.00
2023-03-27T17:37:28.256Z,58.30
2023-03-27T17:39:55.298Z,58.60
2023-03-27T17:42:23.564Z,58.50
2023-03-27T17:44:54.396Z,58.60
2023-03-27T17:47:22.352Z,59.10
2023-03-27T17:49:49.850Z,59.00
2023-03-27T17:52:17.421Z,59.10
2023-03-27T17:54:45.198Z,59.10
2023-03-27T17:57:13.395Z,59.20
2023-03-27T17:59:40.306Z,59.20
2023-03-27T18:02:09.538Z,59.10
2023-03-27T18:04:40.501Z,59.00
2023-03-27T18:07:07.360Z,59.60
2023-03-27T18:09:34.362Z,59.60
2023-03-27T18:12:01.770Z,60.30
2023-03-27T18:14:28.707Z,61.00
2023-03-27T18:16:55.592Z,62.30
2023-03-27T18:19:24.780Z,62.30
2023-03-27T18:21:51.971Z,62.20
2023-03-27T18:24:22.215Z,61.70
2023-03-27T18:26:49.243Z,61.40
2023-03-27T18:29:17.274Z,61.60
2023-03-27T18:31:45.278Z,61.50
2023-03-27T18:34:12.271Z,61.50
2023-03-27T18:36:41.814Z,61.90
2023-03-27T18:39:10.095Z,62.30
2023-03-27T18:41:38.547Z,62.10
2023-03-27T18:44:08.127Z,62.40
2023-03-27T18:46:41.281Z,62.50
2023-03-27T18:49:21.485Z,62.90
2023-03-27T18:51:53.852Z,63.20
2023-03-27T18:54:21.048Z,63.60
2023-03-27T18:56:48.731Z,64.20
2023-03-27T18:59:20.463Z,64.50
2023-03-27T19:01:47.374Z,65.10
2023-03-27T19:04:17.019Z,65.80
2023-03-27T19:06:46.585Z,66.20
2023-03-27T19:09:31.163Z,67.20
2023-03-27T19:12:08.208Z,68.10
2023-03-27T19:14:36.959Z,68.40
2023-03-27T19:17:04.513Z,69.00
2023-03-27T19:19:32.113Z,69.40
2023-03-27T19:22:02.464Z,69.60
2023-03-27T19:24:44.532Z,70.50
2023-03-27T19:27:24.072Z,70.00
2023-03-27T19:29:52.149Z,70.30
2023-03-27T19:32:19.016Z,71.00
2023-03-27T19:34:48.652Z,71.10
2023-03-27T19:37:20.103Z,71.30
2023-03-27T19:39:52.468Z,71.70
2023-03-27T19:42:23.811Z,72.10
2023-03-27T19:44:50.768Z,72.50
2023-03-27T19:47:18.024Z,72.60
2023-03-27T19:49:44.886Z,72.90
2023-03-27T19:52:11.831Z,73.40
2023-03-27T19:54:39.660Z,73.70
2023-03-27T19:57:06.922Z,74.10
2023-03-27T19:59:33.786Z,74.30
2023-03-27T20:02:00.802Z,74.60
2023-03-27T20:04:27.672Z,75.00
2023-03-27T20:06:55.113Z,75.50
2023-03-27T20:09:21.893Z,75.60
2023-03-27T20:11:48.802Z,76.00
2023-03-27T20:14:15.926Z,76.10
2023-03-27T20:16:42.708Z,76.40
2023-03-27T20:19:09.519Z,76.80
2023-03-27T20:21:40.594Z,77.00
2023-03-27T20:24:09.976Z,77.30
2023-03-27T20:26:41.375Z,77.50
2023-03-27T20:29:11.503Z,77.70
2023-03-27T20:31:39.331Z,78.00
2023-03-27T20:34:07.660Z,78.40
2023-03-27T20:36:35.393Z,78.70
2023-03-27T20:39:04.725Z,79.00
2023-03-27T20:41:32.318Z,79.40
2023-03-27T20:43:59.183Z,79.70
2023-03-27T20:46:30.634Z,80.10
2023-03-27T20:48:57.455Z,80.30
2023-03-27T20:51:25.050Z,80.60
2023-03-27T20:53:57.343Z,80.30
2023-03-27T20:56:24.631Z,80.70
2023-03-27T20:58:51.714Z,81.10
2023-03-27T21:01:27.866Z,81.50
2023-03-27T21:03:58.371Z,81.90
2023-03-27T21:06:25.906Z,82.20
2023-03-27T21:08:52.886Z,82.40
2023-03-27T21:11:19.737Z,82.70
2023-03-27T21:13:46.531Z,83.10
2023-03-27T21:16:13.407Z,83.30
2023-03-27T21:18:40.330Z,83.60
2023-03-27T21:21:07.537Z,83.90
2023-03-27T21:23:35.496Z,84.30
2023-03-27T21:26:07.038Z,84.60
2023-03-27T21:28:47.687Z,84.90
2023-03-27T21:31:19.533Z,85.20
2023-03-27T21:40:48.066Z,86.00
2023-03-27T21:43:15.390Z,86.10
2023-03-27T21:45:42.456Z,86.30
2023-03-27T21:48:15.710Z,86.80
2023-03-27T21:50:52.509Z,87.20
2023-03-27T21:54:02.286Z,87.50
2023-03-27T21:56:57.063Z,88.00
2023-03-27T21:59:38.746Z,88.30
2023-03-27T22:02:12.104Z,88.40
2023-03-27T22:07:30.609Z,89.00
2023-03-27T22:10:28.657Z,89.30
2023-03-27T22:16:24.862Z,90.00
2023-03-27T22:21:54.047Z,90.40
2023-03-27T22:24:21.658Z,90.50
2023-03-27T22:26:48.603Z,90.60
2023-03-27T22:30:05.196Z,91.10
2023-03-27T22:32:39.709Z,91.10
2023-03-27T22:35:06.932Z,91.10
2023-03-27T22:37:38.193Z,91.20
2023-03-27T22:40:06.838Z,91.40
2023-03-27T22:42:34.021Z,91.50
2023-03-27T22:45:01.225Z,91.60
2023-03-27T22:47:28.257Z,91.70
2023-03-27T22:49:55.492Z,91.80
2023-03-27T22:52:22.212Z,92.00
2023-03-27T22:54:49.010Z,92.20
2023-03-27T22:57:16.157Z,92.60
2023-03-27T22:59:43.019Z,92.40
2023-03-27T23:02:09.869Z,92.60
2023-03-27T23:04:36.786Z,92.80
2023-03-27T23:07:03.609Z,92.90
2023-03-27T23:09:30.510Z,93.10
2023-03-27T23:11:57.553Z,93.30
2023-03-27T23:14:24.542Z,93.40
2023-03-27T23:16:51.581Z,93.60
2023-03-27T23:19:20.989Z,93.70
2023-03-27T23:21:52.957Z,93.90
2023-03-27T23:24:25.876Z,94.10
2023-03-27T23:27:01.558Z,94.20
2023-03-27T23:29:29.098Z,94.40
2023-03-27T23:31:56.235Z,94.60
2023-03-27T23:34:49.300Z,94.80
2023-03-27T23:37:16.128Z,94.80
2023-03-27T23:39:43.293Z,94.90
2023-03-27T23:42:17.727Z,95.10
2023-03-27T23:44:45.156Z,95.20
2023-03-27T23:47:14.866Z,95.30
2023-03-27T23:49:42.667Z,95.40
2023-03-27T23:52:09.787Z,95.60
2023-03-27T23:54:36.598Z,95.70
2023-03-27T23:57:04.618Z,95.80
2023-03-27T23:59:37.887Z,95.90
